createdAt,value
2023-03-29T00:01:35.832Z,66.68
2023-03-29T00:04:06.444Z,66.70
2023-03-29T00:06:34.733Z,67.09
2023-03-29T00:09:05.647Z,67.35
2023-03-29T00:11:33.951Z,67.52
2023-03-29T00:14:02.040Z,67.57
2023-03-29T00:16:30.304Z,67.89
2023-03-29T00:18:58.884Z,66.60
2023-03-29T00:21:26.967Z,65.97
2023-03-29T00:23:56.838Z,66.31
2023-03-29T00:26:24.964Z,66.00
2023-03-29T00:28:53.341Z,66.02
2023-03-29T00:31:22.002Z,66.81
2023-03-29T00:33:50.892Z,66.90
2023-03-29T00:36:30.060Z,66.92
2023-03-29T00:39:01.658Z,67.61
2023-03-29T00:41:29.950Z,67.42
2023-03-29T00:44:00.979Z,67.88
2023-03-29T00:46:31.482Z,67.95
2023-03-29T00:49:09.162Z,67.62
2023-03-29T00:51:41.560Z,67.78
2023-03-29T00:54:15.099Z,67.89
2023-03-29T00:56:47.322Z,67.77
2023-03-29T00:59:28.597Z,67.76
2023-03-29T01:02:18.264Z,67.57
2023-03-29T01:04:50.461Z,67.53
2023-03-29T01:07:28.555Z,67.16
2023-03-29T01:10:09.263Z,67.15
2023-03-29T01:12:44.613Z,67.11
2023-03-29T01:15:18.143Z,67.20
2023-03-29T01:17:53.785Z,67.15
2023-03-29T01:20:46.195Z,67.09
2023-03-29T01:23:27.495Z,66.84
2023-03-29T01:26:23.197Z,66.61
2023-03-29T01:29:10.015Z,66.25
2023-03-29T01:31:44.060Z,66.11
2023-03-29T01:34:25.872Z,66.00
2023-03-29T01:37:11.998Z,65.76
2023-03-29T01:39:40.487Z,65.47
2023-03-29T01:42:38.778Z,65.33
2023-03-29T01:45:13.301Z,65.08
2023-03-29T01:47:55.218Z,65.20
2023-03-29T01:50:45.179Z,65.08
2023-03-29T01:53:28.906Z,65.03
2023-03-29T01:56:02.628Z,64.76
2023-03-29T01:58:36.596Z,64.70
2023-03-29T02:01:10.100Z,64.59
2023-03-29T02:03:42.891Z,64.57
2023-03-29T02:06:13.416Z,64.60
2023-03-29T02:08:42.729Z,64.47
2023-03-29T02:11:11.022Z,64.45
2023-03-29T02:13:39.475Z,64.40
2023-03-29T02:16:13.007Z,64.77
2023-03-29T02:18:44.939Z,64.30
2023-03-29T02:21:21.504Z,64.39
2023-03-29T02:23:57.645Z,64.51
2023-03-29T02:26:26.468Z,64.16
2023-03-29T02:28:55.934Z,64.09
2023-03-29T02:31:29.623Z,63.98
2023-03-29T02:33:58.861Z,63.87
2023-03-29T02:36:34.495Z,63.88
2023-03-29T02:39:06.073Z,63.90
2023-03-29T02:41:36.452Z,63.73
2023-03-29T02:44:08.456Z,63.74
2023-03-29T02:46:38.635Z,63.66
2023-03-29T02:49:06.956Z,63.68
2023-03-29T02:51:38.105Z,63.71
2023-03-29T02:54:12.997Z,63.63
2023-03-29T02:56:48.433Z,63.30
2023-03-29T02:59:22.775Z,63.35
2023-03-29T03:01:52.924Z,63.41
2023-03-29T03:04:21.614Z,63.37
2023-03-29T03:06:49.962Z,63.42
2023-03-29T03:09:18.739Z,63.23
2023-03-29T03:11:48.410Z,63.27
2023-03-29T03:14:16.917Z,63.24
2023-03-29T03:16:45.973Z,63.29
2023-03-29T03:19:15.550Z,63.14
2023-03-29T03:21:45.742Z,63.13
2023-03-29T03:24:14.167Z,63.05
2023-03-29T03:26:42.507Z,62.96
2023-03-29T03:29:11.489Z,62.78
2023-03-29T03:32:01.143Z,62.53
2023-03-29T03:34:39.064Z,62.69
2023-03-29T03:37:07.538Z,62.54
2023-03-29T03:39:36.960Z,62.36
2023-03-29T03:42:08.163Z,62.35
2023-03-29T03:44:40.156Z,62.31
2023-03-29T03:47:41.340Z,62.13
2023-03-29T03:50:26.239Z,62.15
2023-03-29T03:52:54.450Z,62.11
2023-03-29T03:55:22.852Z,62.02
2023-03-29T03:58:09.680Z,62.08
2023-03-29T04:00:37.895Z,61.91
2023-03-29T04:03:18.019Z,61.94
2023-03-29T04:05:46.851Z,61.94
2023-03-29T04:08:15.470Z,61.87
2023-03-29T04:11:03.124Z,62.00
2023-03-29T04:13:37.460Z,62.03
2023-03-29T04:16:41.366Z,61.82
2023-03-29T04:19:28.641Z,62.07
2023-03-29T04:21:56.764Z,61.94
2023-03-29T04:24:25.293Z,61.90
2023-03-29T04:27:13.350Z,61.68
2023-03-29T04:29:44.990Z,59.75
2023-03-29T04:32:20.947Z,58.38
2023-03-29T04:35:00.952Z,54.91
2023-03-29T04:37:30.000Z,53.61
2023-03-29T04:40:00.529Z,51.52
2023-03-29T04:42:30.697Z,50.37
2023-03-29T04:44:59.802Z,47.97
2023-03-29T04:47:40.179Z,46.26
2023-03-29T04:50:16.781Z,44.23
2023-03-29T04:52:46.280Z,43.96
2023-03-29T04:55:14.659Z,42.84
2023-03-29T04:57:55.776Z,41.03
2023-03-29T05:00:34.046Z,40.89
2023-03-29T05:03:22.139Z,40.26
2023-03-29T05:06:33.364Z,39.80
2023-03-29T05:09:49.979Z,37.71
2023-03-29T05:13:19.072Z,37.31
2023-03-29T05:16:26.864Z,35.49
2023-03-29T05:20:00.097Z,34.18
2023-03-29T05:23:11.665Z,33.58
2023-03-29T05:26:53.483Z,32.51
2023-03-29T05:30:32.297Z,31.78
2023-03-29T05:34:24.107Z,32.19
2023-03-29T05:37:34.708Z,30.36
2023-03-29T05:40:07.275Z,30.89
2023-03-29T05:42:43.746Z,29.32
2023-03-29T05:45:12.341Z,29.11
2023-03-29T05:47:42.213Z,29.86
2023-03-29T05:50:20.346Z,29.53
2023-03-29T05:53:51.520Z,28.93
2023-03-29T05:57:32.636Z,29.55
2023-03-29T06:00:54.330Z,30.05
2023-03-29T06:04:52.370Z,30.69
2023-03-29T06:07:50.638Z,30.96
2023-03-29T06:10:45.397Z,30.14
2023-03-29T06:13:34.192Z,30.13
2023-03-29T06:16:18.289Z,30.64
2023-03-29T06:18:49.680Z,29.95
2023-03-29T06:21:18.515Z,30.35
2023-03-29T06:24:32.966Z,30.44
2023-03-29T06:28:21.428Z,32.17
2023-03-29T06:31:47.111Z,33.10
2023-03-29T06:34:38.851Z,33.76
2023-03-29T06:38:09.102Z,33.40
2023-03-29T06:41:47.247Z,33.28
2023-03-29T06:45:29.265Z,34.52
2023-03-29T06:48:28.389Z,35.00
2023-03-29T06:52:03.627Z,33.85
2023-03-29T06:55:51.320Z,33.10
2023-03-29T06:59:25.931Z,32.23
2023-03-29T07:02:42.802Z,31.85
2023-03-29T07:06:32.729Z,33.23
2023-03-29T07:09:44.427Z,33.85
2023-03-29T07:12:46.599Z,35.07
2023-03-29T07:16:16.018Z,33.61
2023-03-29T07:19:28.212Z,33.11
2023-03-29T07:23:05.029Z,32.05
2023-03-29T07:26:14.023Z,31.74
2023-03-29T07:29:48.140Z,32.85
2023-03-29T07:33:29.803Z,32.37
2023-03-29T07:37:03.924Z,31.39
2023-03-29T07:39:53.639Z,30.09
2023-03-29T07:42:37.654Z,28.63
2023-03-29T07:45:10.952Z,29.17
2023-03-29T07:47:49.544Z,28.15
2023-03-29T07:50:18.587Z,27.83
2023-03-29T07:53:30.092Z,28.03
2023-03-29T07:57:09.683Z,28.28
2023-03-29T08:00:39.271Z,29.35
2023-03-29T08:03:48.323Z,30.22
2023-03-29T08:06:58.504Z,31.63
2023-03-29T08:09:47.200Z,32.58
2023-03-29T08:12:15.983Z,33.13
2023-03-29T08:14:44.466Z,33.51
2023-03-29T08:17:21.562Z,33.48
2023-03-29T08:19:51.690Z,32.34
2023-03-29T08:22:25.574Z,32.78
2023-03-29T08:25:28.239Z,33.04
2023-03-29T08:27:59.589Z,33.33
2023-03-29T08:30:50.390Z,33.87
2023-03-29T08:33:19.562Z,35.14
2023-03-29T08:35:53.037Z,36.59
2023-03-29T08:38:26.892Z,37.12
2023-03-29T08:40:55.888Z,36.25
2023-03-29T08:43:47.941Z,36.50
2023-03-29T08:47:00.351Z,34.82
2023-03-29T08:49:38.136Z,35.08
2023-03-29T08:52:32.843Z,34.96
2023-03-29T08:55:14.086Z,35.87
2023-03-29T08:58:12.334Z,37.06
2023-03-29T09:00:46.737Z,36.78
2023-03-29T09:03:22.912Z,35.31
2023-03-29T09:06:00.219Z,34.86
2023-03-29T09:08:29.042Z,35.57
2023-03-29T09:11:10.124Z,36.62
2023-03-29T09:14:17.668Z,38.19
2023-03-29T09:17:12.032Z,38.66
2023-03-29T09:19:54.430Z,38.31
2023-03-29T09:22:41.467Z,38.89
2023-03-29T09:25:21.558Z,38.35
2023-03-29T09:28:14.546Z,37.65
2023-03-29T09:31:12.455Z,37.47
2023-03-29T09:33:56.444Z,37.99
2023-03-29T09:36:57.650Z,37.57
2023-03-29T09:39:27.782Z,37.00
2023-03-29T09:42:12.891Z,36.00
2023-03-29T09:44:41.670Z,35.82
2023-03-29T09:47:18.728Z,35.19
2023-03-29T09:49:51.797Z,35.50
2023-03-29T09:52:21.131Z,35.53
2023-03-29T09:55:06.707Z,36.28
2023-03-29T09:57:47.500Z,35.34
2023-03-29T10:00:17.136Z,35.97
2023-03-29T10:02:58.997Z,37.42
2023-03-29T10:05:37.387Z,39.93
2023-03-29T10:08:30.541Z,42.00
2023-03-29T10:11:03.905Z,41.74
2023-03-29T10:13:35.731Z,42.25
2023-03-29T10:16:20.129Z,42.25
2023-03-29T10:18:50.366Z,41.38
2023-03-29T10:21:23.980Z,39.68
2023-03-29T10:23:58.755Z,39.29
2023-03-29T10:26:32.073Z,39.13
2023-03-29T10:29:05.133Z,39.06
2023-03-29T10:31:36.905Z,39.88
2023-03-29T10:34:07.109Z,39.96
2023-03-29T10:36:36.402Z,39.50
2023-03-29T10:39:06.386Z,39.19
2023-03-29T10:41:36.051Z,39.47
2023-03-29T10:44:05.217Z,39.68
2023-03-29T10:46:42.318Z,40.35
2023-03-29T10:49:20.014Z,40.34
2023-03-29T10:51:50.513Z,41.30
2023-03-29T10:54:22.829Z,41.28
2023-03-29T10:56:57.861Z,40.98
2023-03-29T10:59:43.522Z,41.57
2023-03-29T11:02:14.861Z,42.15
2023-03-29T11:04:52.796Z,43.49
2023-03-29T11:07:40.485Z,47.76
2023-03-29T11:10:28.496Z,50.91
2023-03-29T11:13:12.054Z,50.51
2023-03-29T11:16:02.707Z,50.99
2023-03-29T11:19:04.067Z,49.52
2023-03-29T11:21:40.942Z,51.37
2023-03-29T11:24:27.461Z,51.55
2023-03-29T11:27:29.853Z,50.89
2023-03-29T11:30:18.304Z,49.68
2023-03-29T11:33:24.550Z,48.39
2023-03-29T11:36:13.874Z,48.66
2023-03-29T11:39:01.007Z,47.98
2023-03-29T11:41:38.399Z,47.78
2023-03-29T11:44:33.508Z,48.27
2023-03-29T11:47:19.288Z,47.60
2023-03-29T11:49:57.629Z,51.25
2023-03-29T11:52:49.297Z,53.21
2023-03-29T11:55:23.803Z,54.56
2023-03-29T11:57:56.688Z,55.50
2023-03-29T12:00:37.680Z,54.80
2023-03-29T12:03:06.999Z,54.02
2023-03-29T12:05:58.994Z,52.71
2023-03-29T12:08:42.696Z,52.34
2023-03-29T12:11:24.650Z,51.05
2023-03-29T12:14:05.188Z,50.52
2023-03-29T12:16:41.979Z,50.03
2023-03-29T12:19:26.125Z,48.16
2023-03-29T12:21:57.368Z,48.26
2023-03-29T12:24:31.956Z,48.55
2023-03-29T12:27:28.637Z,48.82
2023-03-29T12:30:27.526Z,48.36
2023-03-29T12:33:17.548Z,47.78
2023-03-29T12:36:19.622Z,47.81
2023-03-29T12:39:21.686Z,46.94
2023-03-29T12:42:24.003Z,47.16
2023-03-29T12:45:48.351Z,47.61
2023-03-29T12:48:24.708Z,46.95
2023-03-29T12:51:02.107Z,47.18
2023-03-29T12:53:39.053Z,47.39
2023-03-29T12:56:16.999Z,46.31
2023-03-29T12:59:17.893Z,46.54
2023-03-29T13:02:00.178Z,46.34
2023-03-29T13:04:56.544Z,45.57
2023-03-29T13:07:27.501Z,44.37
2023-03-29T13:09:58.888Z,44.53
2023-03-29T13:12:35.960Z,42.07
2023-03-29T13:15:35.234Z,41.47
2023-03-29T13:18:18.818Z,40.63
2023-03-29T13:20:59.913Z,41.12
2023-03-29T13:23:51.740Z,41.69
2023-03-29T13:26:28.624Z,41.36
2023-03-29T13:29:34.677Z,42.28
2023-03-29T13:32:29.080Z,42.81
2023-03-29T13:35:41.721Z,42.86
2023-03-29T13:38:16.715Z,43.70
2023-03-29T13:40:54.268Z,46.48
2023-03-29T13:43:34.796Z,47.89
2023-03-29T13:46:06.895Z,48.01
2023-03-29T13:48:35.370Z,48.13
2023-03-29T13:51:08.399Z,47.65
2023-03-29T13:53:46.027Z,47.80
2023-03-29T13:56:25.759Z,46.97
2023-03-29T13:59:03.838Z,46.35
2023-03-29T14:01:49.471Z,46.53
2023-03-29T14:04:24.936Z,45.46
2023-03-29T14:06:56.415Z,45.03
2023-03-29T14:09:31.882Z,44.18
2023-03-29T14:12:01.365Z,44.26
2023-03-29T14:14:32.301Z,44.23
2023-03-29T14:17:01.437Z,44.80
2023-03-29T14:19:38.213Z,44.92
2023-03-29T14:22:14.668Z,45.46
2023-03-29T14:24:51.804Z,46.00
2023-03-29T14:27:22.145Z,46.48
2023-03-29T14:29:52.559Z,46.11
2023-03-29T14:32:29.362Z,45.89
2023-03-29T14:34:58.844Z,45.98
2023-03-29T14:37:29.921Z,44.49
2023-03-29T14:39:59.583Z,44.94
2023-03-29T14:42:29.258Z,45.63
2023-03-29T14:45:09.446Z,45.36
2023-03-29T14:47:40.671Z,44.90
2023-03-29T14:50:30.987Z,44.51
2023-03-29T14:53:01.869Z,45.04
2023-03-29T14:55:31.153Z,44.40
2023-03-29T14:58:00.621Z,44.00
2023-03-29T15:00:42.631Z,43.90
2023-03-29T15:03:15.555Z,44.15
2023-03-29T15:06:02.070Z,43.69
2023-03-29T15:08:31.046Z,43.96
2023-03-29T15:10:59.962Z,43.10
2023-03-29T15:13:29.822Z,43.26
2023-03-29T15:16:02.137Z,43.02
2023-03-29T15:18:35.617Z,43.26
2023-03-29T15:21:04.912Z,42.78
2023-03-29T15:23:39.599Z,42.18
2023-03-29T15:26:26.412Z,42.28
2023-03-29T15:29:10.394Z,41.87
2023-03-29T15:31:41.923Z,41.81
2023-03-29T15:34:26.497Z,41.98
2023-03-29T15:36:57.434Z,42.65
2023-03-29T15:39:29.548Z,42.39
2023-03-29T15:41:58.516Z,42.71
2023-03-29T15:44:29.525Z,42.45
2023-03-29T15:47:00.094Z,42.43
2023-03-29T15:49:28.543Z,42.13
2023-03-29T15:51:56.854Z,42.36
2023-03-29T15:54:25.215Z,42.45
2023-03-29T15:56:57.233Z,43.16
2023-03-29T15:59:25.720Z,42.50
2023-03-29T16:01:54.767Z,42.53
2023-03-29T16:04:23.097Z,42.86
2023-03-29T16:06:53.641Z,43.12
2023-03-29T16:09:22.931Z,43.07
2023-03-29T16:11:51.536Z,43.36
2023-03-29T16:14:27.476Z,43.28
2023-03-29T16:16:58.827Z,44.24
2023-03-29T16:19:28.408Z,44.51
2023-03-29T16:21:57.122Z,44.13
2023-03-29T16:24:28.020Z,44.28
2023-03-29T16:26:56.855Z,44.37
2023-03-29T16:29:26.074Z,44.38
2023-03-29T16:31:55.009Z,44.43
2023-03-29T16:34:24.027Z,44.87
2023-03-29T16:36:53.177Z,45.22
2023-03-29T16:39:21.791Z,45.46
2023-03-29T16:41:50.459Z,45.59
2023-03-29T16:44:23.941Z,45.98
2023-03-29T16:46:57.987Z,45.62
2023-03-29T16:49:26.287Z,46.01
2023-03-29T16:51:54.441Z,46.21
2023-03-29T16:54:25.962Z,47.30
2023-03-29T16:56:54.324Z,47.07
2023-03-29T16:59:23.031Z,47.24
2023-03-29T17:01:51.164Z,47.06
2023-03-29T17:04:19.527Z,47.18
2023-03-29T17:06:47.785Z,47.54
2023-03-29T17:09:17.834Z,47.55
2023-03-29T17:11:46.434Z,48.18
2023-03-29T17:14:14.759Z,47.76
2023-03-29T17:16:42.878Z,48.27
2023-03-29T17:19:11.433Z,48.39
2023-03-29T17:21:39.851Z,48.91
2023-03-29T17:24:09.871Z,48.97
2023-03-29T17:26:38.382Z,48.78
2023-03-29T17:29:06.524Z,49.18
2023-03-29T17:31:36.390Z,49.31
2023-03-29T17:34:04.512Z,49.78
2023-03-29T17:36:33.925Z,49.18
2023-03-29T17:39:02.965Z,49.14
2023-03-29T17:41:31.550Z,49.79
2023-03-29T17:44:03.421Z,50.71
2023-03-29T17:46:32.470Z,50.59
2023-03-29T17:49:00.662Z,50.35
2023-03-29T17:51:28.820Z,49.96
2023-03-29T17:53:57.325Z,51.26
2023-03-29T17:56:26.489Z,51.13
2023-03-29T17:58:55.722Z,51.19
2023-03-29T18:01:24.789Z,50.92
2023-03-29T18:03:52.996Z,50.81
2023-03-29T18:06:21.445Z,51.04
2023-03-29T18:08:49.774Z,51.39
2023-03-29T18:11:22.854Z,51.10
2023-03-29T18:13:51.527Z,50.87
2023-03-29T18:16:22.114Z,50.73
2023-03-29T18:18:50.977Z,50.46
2023-03-29T18:21:19.449Z,50.85
2023-03-29T18:23:49.319Z,50.23
2023-03-29T18:26:18.228Z,50.54
2023-03-29T18:28:47.420Z,50.44
2023-03-29T18:31:16.387Z,50.32
2023-03-29T18:33:44.662Z,50.41
2023-03-29T18:36:13.820Z,50.20
2023-03-29T18:38:43.906Z,50.07
2023-03-29T18:41:14.180Z,50.01
2023-03-29T18:43:43.319Z,49.87
2023-03-29T18:46:11.532Z,50.20
2023-03-29T18:48:41.228Z,49.73
2023-03-29T18:51:11.941Z,49.41
2023-03-29T18:53:42.168Z,49.46
2023-03-29T18:56:11.339Z,49.76
2023-03-29T18:58:39.628Z,49.67
2023-03-29T19:01:07.842Z,49.96
2023-03-29T19:03:37.283Z,49.31
2023-03-29T19:06:06.566Z,50.01
2023-03-29T19:08:36.840Z,49.86
2023-03-29T19:11:07.580Z,50.02
2023-03-29T19:13:36.478Z,50.69
2023-03-29T19:16:08.344Z,50.46
2023-03-29T19:18:37.701Z,50.65
2023-03-29T19:21:05.843Z,50.42
2023-03-29T19:23:34.571Z,49.71
2023-03-29T19:26:05.768Z,51.33
2023-03-29T19:28:34.238Z,51.65
2023-03-29T19:31:04.378Z,52.25
2023-03-29T19:33:33.058Z,51.81
2023-03-29T19:36:01.752Z,51.34
2023-03-29T19:38:30.278Z,51.93
2023-03-29T19:40:58.585Z,51.91
2023-03-29T19:43:27.792Z,52.32
2023-03-29T19:45:55.898Z,52.15
2023-03-29T19:48:24.780Z,51.28
2023-03-29T19:50:53.230Z,52.17
2023-03-29T19:53:23.272Z,51.06
2023-03-29T19:55:52.566Z,50.55
2023-03-29T19:58:21.891Z,51.31
2023-03-29T20:00:51.058Z,52.19
2023-03-29T20:03:21.935Z,51.65
2023-03-29T20:05:51.064Z,50.99
2023-03-29T20:08:19.237Z,50.75
2023-03-29T20:10:47.491Z,50.51
2023-03-29T20:13:31.529Z,50.46
2023-03-29T20:16:08.221Z,50.93
2023-03-29T20:18:40.390Z,50.97
2023-03-29T20:21:10.003Z,51.09
2023-03-29T20:23:43.793Z,50.75
2023-03-29T20:26:12.283Z,50.85
2023-03-29T20:28:40.625Z,50.61
2023-03-29T20:31:12.497Z,51.05
2023-03-29T20:33:44.689Z,50.82
2023-03-29T20:36:13.414Z,50.75
2023-03-29T20:38:41.781Z,51.34
2023-03-29T20:41:11.036Z,51.08
2023-03-29T20:43:41.006Z,51.30
2023-03-29T20:46:24.170Z,51.04
2023-03-29T20:48:56.234Z,51.42
2023-03-29T20:51:32.243Z,51.15
2023-03-29T20:54:02.843Z,50.81
2023-03-29T20:56:40.158Z,52.35
2023-03-29T20:59:12.364Z,51.17
2023-03-29T21:01:41.165Z,51.50
2023-03-29T21:04:10.962Z,51.36
2023-03-29T21:06:42.387Z,51.65
2023-03-29T21:09:10.547Z,51.79
2023-03-29T21:11:39.362Z,51.57
2023-03-29T21:14:07.563Z,52.83
2023-03-29T21:16:54.598Z,53.06
2023-03-29T21:19:25.407Z,53.62
2023-03-29T21:21:55.148Z,53.01
2023-03-29T21:24:23.355Z,52.88
2023-03-29T21:26:51.541Z,51.84
2023-03-29T21:29:19.743Z,52.33
2023-03-29T21:31:47.998Z,52.96
2023-03-29T21:34:16.720Z,53.37
2023-03-29T21:36:45.098Z,52.77
2023-03-29T21:39:13.476Z,52.86
2023-03-29T21:41:41.723Z,52.52
2023-03-29T21:44:10.136Z,52.48
2023-03-29T21:46:38.344Z,52.49
2023-03-29T21:49:06.987Z,52.90
2023-03-29T21:51:35.869Z,52.35
2023-03-29T21:54:12.222Z,52.28
2023-03-29T21:56:46.115Z,52.36
2023-03-29T21:59:15.568Z,52.90
2023-03-29T22:01:58.732Z,52.52
2023-03-29T22:04:37.110Z,53.03
2023-03-29T22:07:10.825Z,52.69
2023-03-29T22:09:41.692Z,52.82
2023-03-29T22:12:10.160Z,52.78
2023-03-29T22:14:38.296Z,53.06
2023-03-29T22:17:07.173Z,53.25
2023-03-29T22:19:39.740Z,53.48
2023-03-29T22:22:13.981Z,54.00
2023-03-29T22:24:42.573Z,53.94
2023-03-29T22:27:12.200Z,53.79
2023-03-29T22:29:40.380Z,53.38
2023-03-29T22:32:08.581Z,53.59
2023-03-29T22:34:37.059Z,53.89
2023-03-29T22:37:05.516Z,54.67
2023-03-29T22:39:37.533Z,54.44
2023-03-29T22:42:05.810Z,54.39
2023-03-29T22:44:34.161Z,54.95
2023-03-29T22:47:02.282Z,54.26
2023-03-29T22:49:31.127Z,54.37
2023-03-29T22:52:01.455Z,53.96
2023-03-29T22:54:30.037Z,54.42
2023-03-29T22:56:58.648Z,54.91
2023-03-29T22:59:27.402Z,54.35
2023-03-29T23:01:55.641Z,54.74
2023-03-29T23:04:23.830Z,55.63
2023-03-29T23:06:52.006Z,55.28
2023-03-29T23:09:20.198Z,55.69
2023-03-29T23:11:48.409Z,55.07
2023-03-29T23:14:16.667Z,56.24
2023-03-29T23:16:46.380Z,55.46
2023-03-29T23:19:14.833Z,55.21
2023-03-29T23:21:42.898Z,54.57
2023-03-29T23:24:11.255Z,54.78
2023-03-29T23:26:39.374Z,55.16
2023-03-29T23:29:07.865Z,56.52
2023-03-29T23:31:37.951Z,57.28
2023-03-29T23:34:06.396Z,56.22
2023-03-29T23:36:34.871Z,56.47
2023-03-29T23:39:03.418Z,57.37
2023-03-29T23:41:31.518Z,57.29
2023-03-29T23:43:59.972Z,58.16
2023-03-29T23:46:28.265Z,58.59
2023-03-29T23:48:56.920Z,59.23
2023-03-29T23:51:28.351Z,58.78
2023-03-29T23:53:57.053Z,59.01
2023-03-29T23:56:25.357Z,59.94
2023-03-29T23:58:53.726Z,59.31
